sensor_id;sensor_type;location;lat;lon;timestamp;P1;durP1;ratioP1;P2;durP2;ratioP2
4961;SDS011;2496;52.468;13.342;2023-05-21T00:00:50;24.27;;;17.77;;
4961;SDS011;2496;52.468;13.342;2023-05-21T00:03:18;26.03;;;17.30;;
4961;SDS011;2496;52.468;13.342;2023-05-21T00:05:46;26.00;;;17.43;;
4961;SDS011;2496;52.468;13.342;2023-05-21T00:08:14;23.53;;;18.63;;
4961;SDS011;2496;52.468;13.342;2023-05-21T00:10:41;23.23;;;18.10;;
4961;SDS011;2496;52.468;13.342;2023-05-21T00:13:08;27.23;;;19.50;;
4961;SDS011;2496;52.468;13.342;2023-05-21T00:15:35;25.87;;;18.77;;
4961;SDS011;2496;52.468;13.342;2023-05-21T00:18:05;27.10;;;19.13;;
4961;SDS011;2496;52.468;13.342;2023-05-21T00:20:32;21.83;;;19.53;;
4961;SDS011;2496;52.468;13.342;2023-05-21T00:23:01;25.93;;;18.73;;
4961;SDS011;2496;52.468;13.342;2023-05-21T00:25:29;22.03;;;17.70;;
4961;SDS011;2496;52.468;13.342;2023-05-21T00:27:57;23.23;;;17.07;;
4961;SDS011;2496;52.468;13.342;2023-05-21T00:30:24;25.10;;;17.33;;
4961;SDS011;2496;52.468;13.342;2023-05-21T00:32:51;28.90;;;19.33;;
4961;SDS011;2496;52.468;13.342;2023-05-21T00:35:20;20.77;;;16.63;;
4961;SDS011;2496;52.468;13.342;2023-05-21T00:37:47;24.50;;;18.03;;
4961;SDS011;2496;52.468;13.342;2023-05-21T00:40:14;22.87;;;16.43;;
4961;SDS011;2496;52.468;13.342;2023-05-21T00:42:44;21.20;;;17.07;;
4961;SDS011;2496;52.468;13.342;2023-05-21T00:45:14;20.90;;;17.30;;
4961;SDS011;2496;52.468;13.342;2023-05-21T00:47:41;26.27;;;16.60;;
4961;SDS011;2496;52.468;13.342;2023-05-21T00:50:09;23.40;;;17.80;;
4961;SDS011;2496;52.468;13.342;2023-05-21T00:52:40;19.70;;;17.03;;
4961;SDS011;2496;52.468;13.342;2023-05-21T00:55:09;23.57;;;17.97;;
4961;SDS011;2496;52.468;13.342;2023-05-21T00:57:36;20.20;;;16.40;;
4961;SDS011;2496;52.468;13.342;2023-05-21T01:00:06;22.60;;;17.90;;
4961;SDS011;2496;52.468;13.342;2023-05-21T01:02:35;22.97;;;16.57;;
4961;SDS011;2496;52.468;13.342;2023-05-21T01:05:03;22.23;;;17.07;;
4961;SDS011;2496;52.468;13.342;2023-05-21T01:07:31;19.87;;;17.17;;
4961;SDS011;2496;52.468;13.342;2023-05-21T01:10:05;20.00;;;17.23;;
4961;SDS011;2496;52.468;13.342;2023-05-21T01:15:09;20.90;;;16.80;;
4961;SDS011;2496;52.468;13.342;2023-05-21T01:17:37;19.63;;;16.40;;
4961;SDS011;2496;52.468;13.342;2023-05-21T01:20:05;27.23;;;18.63;;
4961;SDS011;2496;52.468;13.342;2023-05-21T01:22:35;24.40;;;17.13;;
4961;SDS011;2496;52.468;13.342;2023-05-21T01:25:09;23.30;;;18.10;;
4961;SDS011;2496;52.468;13.342;2023-05-21T01:27:37;25.73;;;17.37;;
4961;SDS011;2496;52.468;13.342;2023-05-21T01:30:06;24.33;;;18.13;;
4961;SDS011;2496;52.468;13.342;2023-05-21T01:32:36;25.87;;;18.83;;
4961;SDS011;2496;52.468;13.342;2023-05-21T01:35:12;19.87;;;16.60;;
4961;SDS011;2496;52.468;13.342;2023-05-21T01:37:43;21.70;;;16.10;;
4961;SDS011;2496;52.468;13.342;2023-05-21T01:40:17;23.23;;;18.47;;
4961;SDS011;2496;52.468;13.342;2023-05-21T01:42:49;21.50;;;16.80;;
4961;SDS011;2496;52.468;13.342;2023-05-21T01:45:16;26.63;;;16.70;;
4961;SDS011;2496;52.468;13.342;2023-05-21T01:47:45;24.00;;;18.07;;
4961;SDS011;2496;52.468;13.342;2023-05-21T01:50:14;23.67;;;17.07;;
4961;SDS011;2496;52.468;13.342;2023-05-21T01:52:47;24.30;;;17.83;;
4961;SDS011;2496;52.468;13.342;2023-05-21T01:55:17;26.13;;;17.43;;
4961;SDS011;2496;52.468;13.342;2023-05-21T01:57:49;23.00;;;17.10;;
4961;SDS011;2496;52.468;13.342;2023-05-21T02:00:17;23.83;;;17.77;;
4961;SDS011;2496;52.468;13.342;2023-05-21T02:02:44;18.67;;;16.57;;
4961;SDS011;2496;52.468;13.342;2023-05-21T02:05:12;24.20;;;16.87;;
4961;SDS011;2496;52.468;13.342;2023-05-21T02:07:39;20.80;;;17.90;;
4961;SDS011;2496;52.468;13.342;2023-05-21T02:10:09;23.90;;;18.13;;
4961;SDS011;2496;52.468;13.342;2023-05-21T02:12:38;27.40;;;18.40;;
4961;SDS011;2496;52.468;13.342;2023-05-21T02:15:06;22.77;;;17.33;;
4961;SDS011;2496;52.468;13.342;2023-05-21T02:17:33;25.90;;;18.73;;
4961;SDS011;2496;52.468;13.342;2023-05-21T02:20:00;26.97;;;20.20;;
4961;SDS011;2496;52.468;13.342;2023-05-21T02:22:35;23.30;;;18.27;;
4961;SDS011;2496;52.468;13.342;2023-05-21T02:25:03;23.30;;;19.77;;
4961;SDS011;2496;52.468;13.342;2023-05-21T02:27:31;23.53;;;18.50;;
4961;SDS011;2496;52.468;13.342;2023-05-21T02:30:00;24.27;;;18.27;;
4961;SDS011;2496;52.468;13.342;2023-05-21T02:32:28;25.73;;;20.30;;
4961;SDS011;2496;52.468;13.342;2023-05-21T02:34:55;26.70;;;19.77;;
4961;SDS011;2496;52.468;13.342;2023-05-21T02:37:24;30.67;;;19.87;;
4961;SDS011;2496;52.468;13.342;2023-05-21T02:39:52;26.80;;;19.80;;
4961;SDS011;2496;52.468;13.342;2023-05-21T02:42:20;29.23;;;20.43;;
4961;SDS011;2496;52.468;13.342;2023-05-21T02:44:48;24.80;;;19.20;;
4961;SDS011;2496;52.468;13.342;2023-05-21T02:47:17;23.20;;;19.33;;
4961;SDS011;2496;52.468;13.342;2023-05-21T02:49:44;22.93;;;19.53;;
4961;SDS011;2496;52.468;13.342;2023-05-21T02:52:11;23.10;;;19.57;;
4961;SDS011;2496;52.468;13.342;2023-05-21T02:54:38;25.33;;;21.43;;
4961;SDS011;2496;52.468;13.342;2023-05-21T02:57:05;24.00;;;20.87;;
4961;SDS011;2496;52.468;13.342;2023-05-21T02:59:32;27.83;;;21.23;;
4961;SDS011;2496;52.468;13.342;2023-05-21T03:01:59;30.97;;;21.70;;
4961;SDS011;2496;52.468;13.342;2023-05-21T03:04:28;25.37;;;21.03;;
4961;SDS011;2496;52.468;13.342;2023-05-21T03:06:57;26.60;;;20.33;;
4961;SDS011;2496;52.468;13.342;2023-05-21T03:09:26;30.23;;;21.57;;
4961;SDS011;2496;52.468;13.342;2023-05-21T03:11:53;28.50;;;20.90;;
4961;SDS011;2496;52.468;13.342;2023-05-21T03:14:20;26.83;;;21.83;;
4961;SDS011;2496;52.468;13.342;2023-05-21T03:16:48;28.00;;;23.50;;
4961;SDS011;2496;52.468;13.342;2023-05-21T03:19:16;27.87;;;22.27;;
4961;SDS011;2496;52.468;13.342;2023-05-21T03:21:44;28.57;;;23.07;;
4961;SDS011;2496;52.468;13.342;2023-05-21T03:24:13;34.60;;;22.73;;
4961;SDS011;2496;52.468;13.342;2023-05-21T03:26:40;31.80;;;23.93;;
4961;SDS011;2496;52.468;13.342;2023-05-21T03:29:07;28.63;;;23.10;;
4961;SDS011;2496;52.468;13.342;2023-05-21T03:31:33;33.67;;;25.27;;
4961;SDS011;2496;52.468;13.342;2023-05-21T03:34:00;31.50;;;25.50;;
4961;SDS011;2496;52.468;13.342;2023-05-21T03:36:27;35.27;;;24.27;;
4961;SDS011;2496;52.468;13.342;2023-05-21T03:38:57;25.87;;;23.07;;
4961;SDS011;2496;52.468;13.342;2023-05-21T03:41:25;32.67;;;24.70;;
4961;SDS011;2496;52.468;13.342;2023-05-21T03:43:52;27.90;;;23.63;;
4961;SDS011;2496;52.468;13.342;2023-05-21T03:46:19;39.77;;;25.50;;
4961;SDS011;2496;52.468;13.342;2023-05-21T03:48:46;27.97;;;22.67;;
4961;SDS011;2496;52.468;13.342;2023-05-21T03:51:13;31.27;;;25.40;;
4961;SDS011;2496;52.468;13.342;2023-05-21T03:53:42;28.70;;;21.60;;
4961;SDS011;2496;52.468;13.342;2023-05-21T03:56:10;31.50;;;24.60;;
4961;SDS011;2496;52.468;13.342;2023-05-21T03:58:37;30.67;;;24.10;;
4961;SDS011;2496;52.468;13.342;2023-05-21T04:01:04;32.60;;;24.50;;
4961;SDS011;2496;52.468;13.342;2023-05-21T04:03:32;34.73;;;24.00;;
4961;SDS011;2496;52.468;13.342;2023-05-21T04:05:59;33.70;;;25.73;;
4961;SDS011;2496;52.468;13.342;2023-05-21T04:08:26;31.53;;;23.90;;
4961;SDS011;2496;52.468;13.342;2023-05-21T04:10:53;29.13;;;22.20;;
4961;SDS011;2496;52.468;13.342;2023-05-21T04:13:22;35.37;;;25.93;;
4961;SDS011;2496;52.468;13.342;2023-05-21T04:15:49;32.50;;;24.73;;
4961;SDS011;2496;52.468;13.342;2023-05-21T04:18:16;29.40;;;24.40;;
4961;SDS011;2496;52.468;13.342;2023-05-21T04:20:44;32.60;;;24.87;;
4961;SDS011;2496;52.468;13.342;2023-05-21T04:23:11;32.90;;;25.37;;
4961;SDS011;2496;52.468;13.342;2023-05-21T04:25:38;28.83;;;24.57;;
4961;SDS011;2496;52.468;13.342;2023-05-21T04:28:05;34.40;;;25.53;;
4961;SDS011;2496;52.468;13.342;2023-05-21T04:30:34;33.77;;;24.40;;
4961;SDS011;2496;52.468;13.342;2023-05-21T04:33:01;30.00;;;25.60;;
4961;SDS011;2496;52.468;13.342;2023-05-21T04:35:28;31.57;;;26.17;;
4961;SDS011;2496;52.468;13.342;2023-05-21T04:37:55;31.53;;;24.03;;
4961;SDS011;2496;52.468;13.342;2023-05-21T04:40:22;32.43;;;24.70;;
4961;SDS011;2496;52.468;13.342;2023-05-21T04:42:49;31.27;;;25.17;;
4961;SDS011;2496;52.468;13.342;2023-05-21T04:45:16;29.20;;;23.07;;
4961;SDS011;2496;52.468;13.342;2023-05-21T04:47:45;32.53;;;25.27;;
4961;SDS011;2496;52.468;13.342;2023-05-21T04:50:12;31.00;;;25.37;;
4961;SDS011;2496;52.468;13.342;2023-05-21T04:52:39;32.60;;;25.13;;
4961;SDS011;2496;52.468;13.342;2023-05-21T04:55:07;34.23;;;26.10;;
4961;SDS011;2496;52.468;13.342;2023-05-21T04:57:34;31.37;;;25.27;;
4961;SDS011;2496;52.468;13.342;2023-05-21T05:00:01;31.30;;;24.70;;
4961;SDS011;2496;52.468;13.342;2023-05-21T05:02:30;30.90;;;25.50;;
4961;SDS011;2496;52.468;13.342;2023-05-21T05:04:58;33.17;;;24.93;;
4961;SDS011;2496;52.468;13.342;2023-05-21T05:07:25;33.60;;;25.63;;
4961;SDS011;2496;52.468;13.342;2023-05-21T05:09:52;33.20;;;26.53;;
4961;SDS011;2496;52.468;13.342;2023-05-21T05:12:19;33.50;;;26.23;;
4961;SDS011;2496;52.468;13.342;2023-05-21T05:14:46;32.90;;;25.93;;
4961;SDS011;2496;52.468;13.342;2023-05-21T05:17:13;32.90;;;25.90;;
4961;SDS011;2496;52.468;13.342;2023-05-21T05:19:40;37.30;;;26.90;;
4961;SDS011;2496;52.468;13.342;2023-05-21T05:22:09;33.93;;;26.90;;
4961;SDS011;2496;52.468;13.342;2023-05-21T05:24:36;32.00;;;25.83;;
4961;SDS011;2496;52.468;13.342;2023-05-21T05:27:04;31.00;;;25.57;;
4961;SDS011;2496;52.468;13.342;2023-05-21T05:29:31;32.33;;;25.63;;
4961;SDS011;2496;52.468;13.342;2023-05-21T05:31:58;31.07;;;23.83;;
4961;SDS011;2496;52.468;13.342;2023-05-21T05:34:25;30.13;;;26.80;;
4961;SDS011;2496;52.468;13.342;2023-05-21T05:36:52;32.03;;;24.13;;
4961;SDS011;2496;52.468;13.342;2023-05-21T05:39:22;30.40;;;24.73;;
4961;SDS011;2496;52.468;13.342;2023-05-21T05:41:49;31.53;;;24.63;;
4961;SDS011;2496;52.468;13.342;2023-05-21T05:44:16;35.70;;;25.17;;
4961;SDS011;2496;52.468;13.342;2023-05-21T05:46:43;29.00;;;23.43;;
4961;SDS011;2496;52.468;13.342;2023-05-21T05:49:10;34.10;;;25.60;;
4961;SDS011;2496;52.468;13.342;2023-05-21T05:51:39;29.50;;;24.67;;
4961;SDS011;2496;52.468;13.342;2023-05-21T05:54:06;28.57;;;24.57;;
4961;SDS011;2496;52.468;13.342;2023-05-21T05:56:34;32.63;;;23.77;;
4961;SDS011;2496;52.468;13.342;2023-05-21T05:59:01;28.93;;;25.30;;
4961;SDS011;2496;52.468;13.342;2023-05-21T06:01:28;30.97;;;23.87;;
4961;SDS011;2496;52.468;13.342;2023-05-21T06:03:56;27.77;;;23.87;;
4961;SDS011;2496;52.468;13.342;2023-05-21T06:06:23;31.20;;;25.23;;
4961;SDS011;2496;52.468;13.342;2023-05-21T06:08:50;33.13;;;24.40;;
4961;SDS011;2496;52.468;13.342;2023-05-21T06:11:18;28.60;;;23.30;;
4961;SDS011;2496;52.468;13.342;2023-05-21T06:13:48;30.90;;;23.70;;
4961;SDS011;2496;52.468;13.342;2023-05-21T06:16:15;26.30;;;21.10;;
4961;SDS011;2496;52.468;13.342;2023-05-21T06:18:42;26.57;;;23.20;;
4961;SDS011;2496;52.468;13.342;2023-05-21T06:21:09;25.40;;;20.90;;
4961;SDS011;2496;52.468;13.342;2023-05-21T06:23:36;27.13;;;21.90;;
4961;SDS011;2496;52.468;13.342;2023-05-21T06:26:03;25.57;;;22.07;;
4961;SDS011;2496;52.468;13.342;2023-05-21T06:28:30;27.30;;;22.73;;
4961;SDS011;2496;52.468;13.342;2023-05-21T06:30:58;30.13;;;22.63;;
4961;SDS011;2496;52.468;13.342;2023-05-21T06:33:25;24.40;;;21.80;;
4961;SDS011;2496;52.468;13.342;2023-05-21T06:35:52;28.47;;;22.77;;
4961;SDS011;2496;52.468;13.342;2023-05-21T06:38:20;28.03;;;21.13;;
4961;SDS011;2496;52.468;13.342;2023-05-21T06:40:47;22.70;;;20.03;;
4961;SDS011;2496;52.468;13.342;2023-05-21T06:43:14;35.33;;;22.50;;
4961;SDS011;2496;52.468;13.342;2023-05-21T06:45:41;25.90;;;21.43;;
4961;SDS011;2496;52.468;13.342;2023-05-21T06:48:09;28.13;;;22.77;;
4961;SDS011;2496;52.468;13.342;2023-05-21T06:50:39;31.20;;;21.23;;
4961;SDS011;2496;52.468;13.342;2023-05-21T06:53:06;24.87;;;21.07;;
4961;SDS011;2496;52.468;13.342;2023-05-21T06:55:33;26.77;;;21.27;;
4961;SDS011;2496;52.468;13.342;2023-05-21T06:58:01;25.07;;;19.50;;
4961;SDS011;2496;52.468;13.342;2023-05-21T07:00:28;26.73;;;20.90;;
4961;SDS011;2496;52.468;13.342;2023-05-21T07:02:55;24.60;;;19.90;;
4961;SDS011;2496;52.468;13.342;2023-05-21T07:05:23;22.70;;;19.73;;
4961;SDS011;2496;52.468;13.342;2023-05-21T07:07:50;23.03;;;20.30;;
4961;SDS011;2496;52.468;13.342;2023-05-21T07:10:17;25.40;;;19.87;;
4961;SDS011;2496;52.468;13.342;2023-05-21T07:12:44;27.23;;;19.83;;
4961;SDS011;2496;52.468;13.342;2023-05-21T07:15:11;23.77;;;19.20;;
4961;SDS011;2496;52.468;13.342;2023-05-21T07:17:38;22.50;;;18.63;;
4961;SDS011;2496;52.468;13.342;2023-05-21T07:20:06;23.23;;;18.87;;
4961;SDS011;2496;52.468;13.342;2023-05-21T07:22:35;21.53;;;18.07;;
4961;SDS011;2496;52.468;13.342;2023-05-21T07:25:03;21.60;;;18.00;;
4961;SDS011;2496;52.468;13.342;2023-05-21T07:27:31;24.40;;;17.47;;
4961;SDS011;2496;52.468;13.342;2023-05-21T07:29:58;25.80;;;16.27;;
4961;SDS011;2496;52.468;13.342;2023-05-21T07:32:25;19.63;;;16.53;;
4961;SDS011;2496;52.468;13.342;2023-05-21T07:34:53;29.73;;;17.10;;
4961;SDS011;2496;52.468;13.342;2023-05-21T07:37:20;18.50;;;16.50;;
4961;SDS011;2496;52.468;13.342;2023-05-21T07:39:48;18.43;;;16.13;;
4961;SDS011;2496;52.468;13.342;2023-05-21T07:42:15;19.13;;;16.33;;
4961;SDS011;2496;52.468;13.342;2023-05-21T07:44:42;17.83;;;15.63;;
4961;SDS011;2496;52.468;13.342;2023-05-21T07:47:09;22.63;;;17.50;;
4961;SDS011;2496;52.468;13.342;2023-05-21T07:49:36;18.47;;;16.57;;
4961;SDS011;2496;52.468;13.342;2023-05-21T07:52:03;18.60;;;16.10;;
4961;SDS011;2496;52.468;13.342;2023-05-21T07:54:31;17.37;;;15.23;;
4961;SDS011;2496;52.468;13.342;2023-05-21T07:56:59;18.97;;;14.87;;
4961;SDS011;2496;52.468;13.342;2023-05-21T07:59:26;17.50;;;15.70;;
4961;SDS011;2496;52.468;13.342;2023-05-21T08:01:54;20.27;;;15.73;;
4961;SDS011;2496;52.468;13.342;2023-05-21T08:04:21;19.23;;;15.00;;
4961;SDS011;2496;52.468;13.342;2023-05-21T08:06:48;20.23;;;14.53;;
4961;SDS011;2496;52.468;13.342;2023-05-21T08:09:15;18.63;;;14.53;;
4961;SDS011;2496;52.468;13.342;2023-05-21T08:11:42;17.90;;;14.00;;
4961;SDS011;2496;52.468;13.342;2023-05-21T08:14:10;18.30;;;14.90;;
4961;SDS011;2496;52.468;13.342;2023-05-21T08:16:37;19.77;;;15.27;;
4961;SDS011;2496;52.468;13.342;2023-05-21T08:19:04;19.50;;;14.30;;
4961;SDS011;2496;52.468;13.342;2023-05-21T08:21:31;25.60;;;15.60;;
4961;SDS011;2496;52.468;13.342;2023-05-21T08:23:58;19.90;;;14.47;;
4961;SDS011;2496;52.468;13.342;2023-05-21T08:26:26;16.30;;;13.60;;
4961;SDS011;2496;52.468;13.342;2023-05-21T08:28:53;22.33;;;14.40;;
4961;SDS011;2496;52.468;13.342;2023-05-21T08:31:22;19.60;;;14.60;;
4961;SDS011;2496;52.468;13.342;2023-05-21T08:33:49;14.70;;;12.80;;
4961;SDS011;2496;52.468;13.342;2023-05-21T08:36:16;21.57;;;14.30;;
4961;SDS011;2496;52.468;13.342;2023-05-21T08:38:44;15.70;;;12.80;;
4961;SDS011;2496;52.468;13.342;2023-05-21T08:41:11;17.73;;;13.57;;
4961;SDS011;2496;52.468;13.342;2023-05-21T08:43:39;19.30;;;12.63;;
4961;SDS011;2496;52.468;13.342;2023-05-21T08:46:07;13.30;;;12.00;;
4961;SDS011;2496;52.468;13.342;2023-05-21T08:48:38;25.43;;;13.73;;
4961;SDS011;2496;52.468;13.342;2023-05-21T08:51:09;15.77;;;11.90;;
4961;SDS011;2496;52.468;13.342;2023-05-21T08:53:36;23.63;;;13.03;;
4961;SDS011;2496;52.468;13.342;2023-05-21T08:56:03;12.10;;;11.00;;
4961;SDS011;2496;52.468;13.342;2023-05-21T08:58:31;14.63;;;13.10;;
4961;SDS011;2496;52.468;13.342;2023-05-21T09:01:02;16.40;;;13.17;;
4961;SDS011;2496;52.468;13.342;2023-05-21T09:03:32;13.57;;;11.77;;
4961;SDS011;2496;52.468;13.342;2023-05-21T09:06:04;18.33;;;11.80;;
4961;SDS011;2496;52.468;13.342;2023-05-21T09:08:34;14.20;;;11.60;;
4961;SDS011;2496;52.468;13.342;2023-05-21T09:11:01;14.90;;;11.67;;
4961;SDS011;2496;52.468;13.342;2023-05-21T09:13:28;12.27;;;10.97;;
4961;SDS011;2496;52.468;13.342;2023-05-21T09:15:58;14.93;;;11.30;;
4961;SDS011;2496;52.468;13.342;2023-05-21T09:18:25;16.17;;;11.67;;
4961;SDS011;2496;52.468;13.342;2023-05-21T09:20:55;16.67;;;12.53;;
4961;SDS011;2496;52.468;13.342;2023-05-21T09:23:24;15.60;;;10.80;;
4961;SDS011;2496;52.468;13.342;2023-05-21T09:25:54;17.67;;;11.10;;
4961;SDS011;2496;52.468;13.342;2023-05-21T09:28:21;14.40;;;12.10;;
4961;SDS011;2496;52.468;13.342;2023-05-21T09:30:49;15.97;;;11.93;;
4961;SDS011;2496;52.468;13.342;2023-05-21T09:33:23;13.07;;;11.63;;
4961;SDS011;2496;52.468;13.342;2023-05-21T09:35:51;14.77;;;10.47;;
4961;SDS011;2496;52.468;13.342;2023-05-21T09:38:18;13.50;;;11.30;;
4961;SDS011;2496;52.468;13.342;2023-05-21T09:40:49;12.50;;;10.87;;
4961;SDS011;2496;52.468;13.342;2023-05-21T09:43:16;14.73;;;10.57;;
4961;SDS011;2496;52.468;13.342;2023-05-21T09:45:49;13.70;;;9.90;;
4961;SDS011;2496;52.468;13.342;2023-05-21T09:48:31;11.63;;;9.40;;
4961;SDS011;2496;52.468;13.342;2023-05-21T09:51:06;16.03;;;9.60;;
4961;SDS011;2496;52.468;13.342;2023-05-21T09:53:35;11.07;;;9.97;;
4961;SDS011;2496;52.468;13.342;2023-05-21T09:56:04;12.10;;;9.83;;
4961;SDS011;2496;52.468;13.342;2023-05-21T09:58:31;10.77;;;9.67;;
4961;SDS011;2496;52.468;13.342;2023-05-21T10:00:59;12.27;;;9.23;;
4961;SDS011;2496;52.468;13.342;2023-05-21T10:03:27;11.80;;;9.10;;
4961;SDS011;2496;52.468;13.342;2023-05-21T10:05:56;9.80;;;8.90;;
4961;SDS011;2496;52.468;13.342;2023-05-21T10:08:26;11.20;;;7.50;;
4961;SDS011;2496;52.468;13.342;2023-05-21T10:10:54;9.70;;;8.70;;
4961;SDS011;2496;52.468;13.342;2023-05-21T10:13:22;13.60;;;9.50;;
4961;SDS011;2496;52.468;13.342;2023-05-21T10:15:52;15.30;;;8.10;;
4961;SDS011;2496;52.468;13.342;2023-05-21T10:18:23;10.30;;;8.50;;
4961;SDS011;2496;52.468;13.342;2023-05-21T10:20:50;9.80;;;8.00;;
4961;SDS011;2496;52.468;13.342;2023-05-21T10:23:18;8.63;;;7.30;;
4961;SDS011;2496;52.468;13.342;2023-05-21T10:25:46;10.47;;;7.43;;
4961;SDS011;2496;52.468;13.342;2023-05-21T10:28:15;14.50;;;7.80;;
4961;SDS011;2496;52.468;13.342;2023-05-21T10:30:44;11.90;;;8.00;;
4961;SDS011;2496;52.468;13.342;2023-05-21T10:33:12;11.30;;;7.57;;
4961;SDS011;2496;52.468;13.342;2023-05-21T10:35:41;15.90;;;7.43;;
4961;SDS011;2496;52.468;13.342;2023-05-21T10:38:10;12.63;;;7.50;;
4961;SDS011;2496;52.468;13.342;2023-05-21T10:40:38;11.73;;;7.00;;
4961;SDS011;2496;52.468;13.342;2023-05-21T10:43:23;8.43;;;6.93;;
4961;SDS011;2496;52.468;13.342;2023-05-21T10:49:06;10.67;;;6.77;;
4961;SDS011;2496;52.468;13.342;2023-05-21T10:51:50;9.80;;;7.53;;
4961;SDS011;2496;52.468;13.342;2023-05-21T10:54:29;8.00;;;7.10;;
4961;SDS011;2496;52.468;13.342;2023-05-21T10:57:17;9.57;;;7.60;;
4961;SDS011;2496;52.468;13.342;2023-05-21T10:59:59;10.63;;;7.43;;
4961;SDS011;2496;52.468;13.342;2023-05-21T11:02:27;10.53;;;7.20;;
4961;SDS011;2496;52.468;13.342;2023-05-21T11:04:58;8.83;;;7.27;;
4961;SDS011;2496;52.468;13.342;2023-05-21T11:10:28;7.80;;;7.00;;
4961;SDS011;2496;52.468;13.342;2023-05-21T11:13:06;13.00;;;7.50;;
4961;SDS011;2496;52.468;13.342;2023-05-21T11:21:36;9.00;;;6.90;;
4961;SDS011;2496;52.468;13.342;2023-05-21T11:24:05;11.40;;;7.60;;
4961;SDS011;2496;52.468;13.342;2023-05-21T11:32:13;16.83;;;6.57;;
4961;SDS011;2496;52.468;13.342;2023-05-21T11:34:44;9.70;;;6.60;;
4961;SDS011;2496;52.468;13.342;2023-05-21T11:37:23;11.73;;;6.70;;
4961;SDS011;2496;52.468;13.342;2023-05-21T11:39:54;8.47;;;6.60;;
4961;SDS011;2496;52.468;13.342;2023-05-21T11:42:29;12.93;;;7.43;;
4961;SDS011;2496;52.468;13.342;2023-05-21T11:44:58;9.03;;;6.73;;
4961;SDS011;2496;52.468;13.342;2023-05-21T11:47:27;17.10;;;6.53;;
4961;SDS011;2496;52.468;13.342;2023-05-21T11:49:57;10.27;;;6.80;;
4961;SDS011;2496;52.468;13.342;2023-05-21T11:52:28;7.53;;;6.83;;
4961;SDS011;2496;52.468;13.342;2023-05-21T11:54:57;8.37;;;6.70;;
4961;SDS011;2496;52.468;13.342;2023-05-21T11:57:25;9.63;;;7.10;;
4961;SDS011;2496;52.468;13.342;2023-05-21T11:59:54;10.67;;;7.33;;
4961;SDS011;2496;52.468;13.342;2023-05-21T12:02:24;10.07;;;6.30;;
4961;SDS011;2496;52.468;13.342;2023-05-21T12:04:52;12.17;;;7.77;;
4961;SDS011;2496;52.468;13.342;2023-05-21T12:07:25;7.00;;;6.30;;
4961;SDS011;2496;52.468;13.342;2023-05-21T12:09:55;8.03;;;6.67;;
4961;SDS011;2496;52.468;13.342;2023-05-21T12:12:23;7.83;;;6.73;;
4961;SDS011;2496;52.468;13.342;2023-05-21T12:14:51;7.70;;;6.70;;
4961;SDS011;2496;52.468;13.342;2023-05-21T12:17:20;11.83;;;6.47;;
4961;SDS011;2496;52.468;13.342;2023-05-21T12:19:49;9.10;;;6.77;;
4961;SDS011;2496;52.468;13.342;2023-05-21T12:22:17;11.50;;;7.40;;
4961;SDS011;2496;52.468;13.342;2023-05-21T12:24:44;9.63;;;6.60;;
4961;SDS011;2496;52.468;13.342;2023-05-21T12:27:13;10.23;;;6.67;;
4961;SDS011;2496;52.468;13.342;2023-05-21T12:29:43;15.80;;;7.50;;
4961;SDS011;2496;52.468;13.342;2023-05-21T12:32:11;10.30;;;6.53;;
4961;SDS011;2496;52.468;13.342;2023-05-21T12:34:40;11.20;;;6.13;;
4961;SDS011;2496;52.468;13.342;2023-05-21T12:37:10;12.27;;;7.50;;
4961;SDS011;2496;52.468;13.342;2023-05-21T12:39:41;13.53;;;6.50;;
4961;SDS011;2496;52.468;13.342;2023-05-21T12:42:09;11.67;;;6.73;;
4961;SDS011;2496;52.468;13.342;2023-05-21T12:44:38;14.53;;;7.37;;
4961;SDS011;2496;52.468;13.342;2023-05-21T12:47:09;11.77;;;7.20;;
4961;SDS011;2496;52.468;13.342;2023-05-21T12:49:37;8.43;;;7.50;;
4961;SDS011;2496;52.468;13.342;2023-05-21T12:52:07;8.00;;;7.17;;
4961;SDS011;2496;52.468;13.342;2023-05-21T12:54:35;7.53;;;6.30;;
4961;SDS011;2496;52.468;13.342;2023-05-21T12:57:07;8.20;;;7.40;;
4961;SDS011;2496;52.468;13.342;2023-05-21T12:59:48;8.77;;;6.50;;
4961;SDS011;2496;52.468;13.342;2023-05-21T13:02:19;10.50;;;6.80;;
4961;SDS011;2496;52.468;13.342;2023-05-21T13:04:48;7.90;;;6.70;;
4961;SDS011;2496;52.468;13.342;2023-05-21T13:07:19;7.47;;;6.43;;
4961;SDS011;2496;52.468;13.342;2023-05-21T13:09:46;11.30;;;7.63;;
4961;SDS011;2496;52.468;13.342;2023-05-21T13:12:14;11.53;;;6.80;;
4961;SDS011;2496;52.468;13.342;2023-05-21T13:14:41;10.00;;;6.97;;
4961;SDS011;2496;52.468;13.342;2023-05-21T13:17:09;10.50;;;7.37;;
4961;SDS011;2496;52.468;13.342;2023-05-21T13:19:36;10.30;;;7.13;;
4961;SDS011;2496;52.468;13.342;2023-05-21T13:22:03;10.57;;;6.53;;
4961;SDS011;2496;52.468;13.342;2023-05-21T13:24:31;8.90;;;7.00;;
4961;SDS011;2496;52.468;13.342;2023-05-21T13:26:58;11.30;;;6.90;;
4961;SDS011;2496;52.468;13.342;2023-05-21T13:29:25;8.50;;;6.03;;
4961;SDS011;2496;52.468;13.342;2023-05-21T13:31:52;15.43;;;7.80;;
4961;SDS011;2496;52.468;13.342;2023-05-21T13:34:20;10.60;;;7.40;;
4961;SDS011;2496;52.468;13.342;2023-05-21T13:36:47;7.47;;;6.07;;
4961;SDS011;2496;52.468;13.342;2023-05-21T13:39:14;12.80;;;7.30;;
4961;SDS011;2496;52.468;13.342;2023-05-21T13:41:41;8.53;;;7.03;;
4961;SDS011;2496;52.468;13.342;2023-05-21T13:44:08;13.23;;;6.53;;
4961;SDS011;2496;52.468;13.342;2023-05-21T13:46:35;12.60;;;7.03;;
4961;SDS011;2496;52.468;13.342;2023-05-21T13:49:03;7.67;;;6.73;;
4961;SDS011;2496;52.468;13.342;2023-05-21T13:51:33;7.70;;;6.90;;
4961;SDS011;2496;52.468;13.342;2023-05-21T13:54:00;8.80;;;7.17;;
4961;SDS011;2496;52.468;13.342;2023-05-21T13:56:27;12.00;;;6.70;;
4961;SDS011;2496;52.468;13.342;2023-05-21T13:58:54;13.70;;;7.50;;
4961;SDS011;2496;52.468;13.342;2023-05-21T14:01:21;10.13;;;7.43;;
4961;SDS011;2496;52.468;13.342;2023-05-21T14:03:48;7.90;;;6.03;;
4961;SDS011;2496;52.468;13.342;2023-05-21T14:06:15;10.43;;;7.83;;
4961;SDS011;2496;52.468;13.342;2023-05-21T14:08:43;7.80;;;7.00;;
4961;SDS011;2496;52.468;13.342;2023-05-21T14:11:10;10.40;;;7.63;;
4961;SDS011;2496;52.468;13.342;2023-05-21T14:13:37;12.90;;;7.23;;
4961;SDS011;2496;52.468;13.342;2023-05-21T14:16:05;9.13;;;6.70;;
4961;SDS011;2496;52.468;13.342;2023-05-21T14:18:33;10.17;;;6.90;;
4961;SDS011;2496;52.468;13.342;2023-05-21T14:21:00;9.10;;;7.57;;
4961;SDS011;2496;52.468;13.342;2023-05-21T14:23:27;10.40;;;7.47;;
4961;SDS011;2496;52.468;13.342;2023-05-21T14:25:55;7.90;;;7.10;;
4961;SDS011;2496;52.468;13.342;2023-05-21T14:28:22;11.33;;;7.63;;
4961;SDS011;2496;52.468;13.342;2023-05-21T14:30:49;8.80;;;7.00;;
4961;SDS011;2496;52.468;13.342;2023-05-21T14:33:18;9.57;;;6.67;;
4961;SDS011;2496;52.468;13.342;2023-05-21T14:35:45;7.80;;;6.70;;
4961;SDS011;2496;52.468;13.342;2023-05-21T14:38:12;9.10;;;7.07;;
4961;SDS011;2496;52.468;13.342;2023-05-21T14:40:39;19.17;;;7.90;;
4961;SDS011;2496;52.468;13.342;2023-05-21T14:43:07;13.23;;;7.23;;
4961;SDS011;2496;52.468;13.342;2023-05-21T14:45:34;9.13;;;6.70;;
4961;SDS011;2496;52.468;13.342;2023-05-21T14:48:01;7.50;;;6.80;;
4961;SDS011;2496;52.468;13.342;2023-05-21T14:50:32;9.37;;;7.60;;
4961;SDS011;2496;52.468;13.342;2023-05-21T14:53:02;8.20;;;6.33;;
4961;SDS011;2496;52.468;13.342;2023-05-21T14:55:29;9.63;;;6.93;;
4961;SDS011;2496;52.468;13.342;2023-05-21T14:57:57;14.60;;;7.47;;
4961;SDS011;2496;52.468;13.342;2023-05-21T15:00:26;13.10;;;7.00;;
4961;SDS011;2496;52.468;13.342;2023-05-21T15:02:53;7.43;;;6.50;;
4961;SDS011;2496;52.468;13.342;2023-05-21T15:05:20;8.17;;;7.37;;
4961;SDS011;2496;52.468;13.342;2023-05-21T15:07:47;10.70;;;7.40;;